createdAt,value
2023-03-17T00:00:26.179Z,0
2023-03-17T00:01:26.752Z,0
2023-03-17T00:02:27.360Z,0
2023-03-17T00:03:27.952Z,0
2023-03-17T00:04:28.534Z,0
2023-03-17T00:05:29.146Z,0
2023-03-17T00:06:29.728Z,0
2023-03-17T00:07:30.326Z,0
2023-03-17T00:08:30.923Z,0
2023-03-17T00:09:31.535Z,0
2023-03-17T00:10:32.728Z,0
2023-03-17T00:11:33.452Z,0
2023-03-17T00:12:34.083Z,0
2023-03-17T00:13:34.637Z,0
2023-03-17T00:14:35.250Z,0
2023-03-17T00:15:35.871Z,0
2023-03-17T00:16:36.434Z,0
2023-03-17T00:17:37.024Z,0
2023-03-17T00:18:37.634Z,0
2023-03-17T00:19:38.232Z,0
2023-03-17T00:20:38.826Z,0
2023-03-17T00:21:39.414Z,0
2023-03-17T00:22:40.018Z,0
2023-03-17T00:23:40.597Z,0
2023-03-17T00:24:41.192Z,0
2023-03-17T00:25:41.782Z,0
2023-03-17T00:26:42.393Z,0
2023-03-17T00:27:42.989Z,0
2023-03-17T00:28:43.600Z,0
2023-03-17T00:29:44.200Z,0
2023-03-17T00:30:44.782Z,0
2023-03-17T00:31:45.433Z,0
2023-03-17T00:32:46.040Z,0
2023-03-17T00:33:46.601Z,0
2023-03-17T00:34:47.193Z,0
2023-03-17T00:35:47.846Z,0
2023-03-17T00:36:48.399Z,0
2023-03-17T00:37:48.993Z,0
2023-03-17T00:38:49.594Z,0
2023-03-17T00:39:50.188Z,0
2023-03-17T00:40:50.783Z,0
2023-03-17T00:41:51.374Z,0
2023-03-17T00:42:51.977Z,0
2023-03-17T00:43:52.568Z,0
2023-03-17T00:44:53.169Z,0
2023-03-17T00:45:53.753Z,0
2023-03-17T00:46:54.406Z,0
2023-03-17T00:47:54.979Z,0
2023-03-17T00:48:55.579Z,0
2023-03-17T00:49:56.192Z,0
2023-03-17T00:50:56.775Z,0
2023-03-17T00:51:57.368Z,0
2023-03-17T00:52:57.990Z,0
2023-03-17T00:53:58.571Z,0
2023-03-17T00:54:59.167Z,0
2023-03-17T00:55:59.758Z,0
2023-03-17T00:57:00.383Z,0
2023-03-17T00:58:00.956Z,0
2023-03-17T00:59:01.550Z,0
2023-03-17T01:00:02.138Z,0
2023-03-17T01:01:02.803Z,0
2023-03-17T01:02:03.415Z,0
2023-03-17T01:03:03.993Z,0
2023-03-17T01:04:04.597Z,0
2023-03-17T01:05:06.694Z,0
2023-03-17T01:06:06.761Z,0
2023-03-17T01:07:07.478Z,0
2023-03-17T01:08:08.096Z,0
2023-03-17T01:09:08.683Z,0
2023-03-17T01:10:09.276Z,0
2023-03-17T01:11:09.869Z,0
2023-03-17T01:12:10.466Z,0
2023-03-17T01:13:11.057Z,0
2023-03-17T01:14:11.647Z,0
2023-03-17T01:15:12.272Z,0
2023-03-17T01:16:12.889Z,0
2023-03-17T01:17:13.453Z,0
2023-03-17T01:18:14.095Z,0
2023-03-17T01:19:14.662Z,0
2023-03-17T01:20:15.273Z,0
2023-03-17T01:21:15.868Z,0
2023-03-17T01:22:16.460Z,0
2023-03-17T01:23:17.065Z,0
2023-03-17T01:24:17.645Z,0
2023-03-17T01:25:18.238Z,0
2023-03-17T01:26:18.832Z,0
2023-03-17T01:27:19.429Z,0
2023-03-17T01:28:20.018Z,0
2023-03-17T01:29:20.612Z,0
2023-03-17T01:30:21.203Z,0
2023-03-17T01:31:21.813Z,0
2023-03-17T01:32:22.387Z,0
2023-03-17T01:33:22.984Z,0
2023-03-17T01:34:23.632Z,0
2023-03-17T01:35:24.225Z,0
2023-03-17T01:36:24.835Z,0
2023-03-17T01:37:25.431Z,0
2023-03-17T01:38:26.025Z,0
2023-03-17T01:39:26.620Z,0
2023-03-17T01:40:27.257Z,0
2023-03-17T01:41:27.823Z,0
2023-03-17T01:42:28.416Z,0
2023-03-17T01:43:29.012Z,0
2023-03-17T01:44:29.602Z,0
2023-03-17T01:45:30.258Z,0
2023-03-17T01:46:30.835Z,0
2023-03-17T01:47:31.466Z,0
2023-03-17T01:48:32.026Z,0
2023-03-17T01:49:32.620Z,0
2023-03-17T01:50:33.234Z,0
2023-03-17T01:51:33.808Z,0
2023-03-17T01:52:34.400Z,0
2023-03-17T01:53:34.995Z,0
2023-03-17T01:54:35.625Z,0
2023-03-17T01:55:36.191Z,0
2023-03-17T01:56:36.786Z,0
2023-03-17T01:57:37.403Z,0
2023-03-17T01:58:37.992Z,0
2023-03-17T01:59:38.581Z,0
2023-03-17T02:00:39.173Z,0
2023-03-17T02:01:39.774Z,0
2023-03-17T02:02:40.385Z,0
2023-03-17T02:03:40.968Z,0
2023-03-17T02:04:41.562Z,0
2023-03-17T02:05:42.152Z,0
2023-03-17T02:06:56.788Z,0
2023-03-17T02:07:44.330Z,0
2023-03-17T02:08:44.919Z,0
2023-03-17T02:09:45.517Z,0
2023-03-17T02:10:46.110Z,0
2023-03-17T02:11:46.702Z,0
2023-03-17T02:12:47.313Z,0
2023-03-17T02:13:47.901Z,0
2023-03-17T02:14:48.498Z,0
2023-03-17T02:15:49.086Z,0
2023-03-17T02:16:49.718Z,0
2023-03-17T02:17:50.292Z,0
2023-03-17T02:18:50.883Z,0
2023-03-17T02:19:51.475Z,0
2023-03-17T02:20:52.068Z,0
2023-03-17T02:21:52.663Z,0
2023-03-17T02:22:53.254Z,0
2023-03-17T02:23:53.872Z,0
2023-03-17T02:24:54.460Z,0
2023-03-17T02:25:55.053Z,0
2023-03-17T02:26:55.675Z,0
2023-03-17T02:27:56.233Z,0
2023-03-17T02:28:56.830Z,0
2023-03-17T02:29:57.422Z,0
2023-03-17T02:30:58.128Z,0
2023-03-17T02:31:58.709Z,0
2023-03-17T02:32:59.338Z,0
2023-03-17T02:33:59.899Z,0
2023-03-17T02:35:00.494Z,0
2023-03-17T02:36:01.164Z,0
2023-03-17T02:37:01.720Z,0
2023-03-17T02:38:02.308Z,0
2023-03-17T02:39:02.902Z,0
2023-03-17T02:40:03.495Z,0
2023-03-17T02:41:04.126Z,0
2023-03-17T02:42:04.700Z,0
2023-03-17T02:43:05.326Z,0
2023-03-17T02:44:05.901Z,0
2023-03-17T02:45:06.505Z,0
2023-03-17T02:46:07.226Z,0
2023-03-17T02:47:07.764Z,0
2023-03-17T02:48:08.362Z,0
2023-03-17T02:49:08.949Z,0
2023-03-17T02:50:09.546Z,0
2023-03-17T02:51:10.143Z,0
2023-03-17T02:52:10.731Z,0
2023-03-17T02:53:11.332Z,0
2023-03-17T02:54:11.941Z,0
2023-03-17T02:55:12.557Z,0
2023-03-17T02:56:13.171Z,0
2023-03-17T02:57:13.773Z,0
2023-03-17T02:58:14.355Z,0
2023-03-17T02:59:14.949Z,0
2023-03-17T03:00:15.586Z,0
2023-03-17T03:01:16.190Z,0
2023-03-17T03:02:16.794Z,0
2023-03-17T03:03:17.379Z,0
2023-03-17T03:04:17.971Z,0
2023-03-17T03:05:18.566Z,0
2023-03-17T03:06:19.154Z,0
2023-03-17T03:07:19.750Z,0
2023-03-17T03:08:20.340Z,0
2023-03-17T03:09:20.950Z,0
2023-03-17T03:10:21.544Z,0
2023-03-17T03:11:22.138Z,0
2023-03-17T03:12:22.730Z,0
2023-03-17T03:13:23.323Z,0
2023-03-17T03:14:23.913Z,0
2023-03-17T03:15:24.504Z,0
2023-03-17T03:16:25.094Z,0
2023-03-17T03:17:25.699Z,0
2023-03-17T03:18:26.284Z,0
2023-03-17T03:19:26.878Z,0
2023-03-17T03:20:27.677Z,0
2023-03-17T03:21:28.310Z,0
2023-03-17T03:22:28.902Z,0
2023-03-17T03:23:29.496Z,0
2023-03-17T03:24:30.140Z,0
2023-03-17T03:25:30.681Z,0
2023-03-17T03:26:31.273Z,0
2023-03-17T03:27:31.866Z,0
2023-03-17T03:28:32.459Z,0
2023-03-17T03:29:33.074Z,0
2023-03-17T03:30:33.669Z,0
2023-03-17T03:31:34.265Z,0
2023-03-17T03:32:34.892Z,0
2023-03-17T03:33:35.490Z,0
2023-03-17T03:34:36.090Z,0
2023-03-17T03:35:36.754Z,0
2023-03-17T03:36:37.318Z,0
2023-03-17T03:37:37.911Z,0
2023-03-17T03:38:38.504Z,0
2023-03-17T03:39:39.098Z,0
2023-03-17T03:40:39.689Z,0
2023-03-17T03:41:40.297Z,0
2023-03-17T03:42:40.894Z,0
2023-03-17T03:43:41.483Z,0
2023-03-17T03:44:42.085Z,0
2023-03-17T03:45:42.679Z,0
2023-03-17T03:46:43.354Z,0
2023-03-17T03:47:43.927Z,0
2023-03-17T03:48:44.541Z,0
2023-03-17T03:49:45.137Z,0
2023-03-17T03:50:45.743Z,0
2023-03-17T03:51:46.349Z,0
2023-03-17T03:52:46.941Z,0
2023-03-17T03:53:47.553Z,0
2023-03-17T03:54:48.150Z,0
2023-03-17T03:55:48.735Z,0
2023-03-17T03:56:49.334Z,0
2023-03-17T03:57:49.923Z,0
2023-03-17T03:58:50.513Z,0
2023-03-17T03:59:51.104Z,0
2023-03-17T04:00:51.694Z,0
2023-03-17T04:01:52.306Z,0
2023-03-17T04:02:53.022Z,0
2023-03-17T04:03:53.591Z,0
2023-03-17T04:04:54.225Z,0
2023-03-17T04:05:54.788Z,0
2023-03-17T04:06:55.386Z,0
2023-03-17T04:07:55.995Z,0
2023-03-17T04:08:58.316Z,0
2023-03-17T04:09:57.202Z,0
2023-03-17T04:10:57.784Z,0
2023-03-17T04:11:58.391Z,0
2023-03-17T04:12:58.974Z,0
2023-03-17T04:13:59.578Z,0
2023-03-17T04:15:00.172Z,0
2023-03-17T04:16:00.818Z,0
2023-03-17T04:17:01.399Z,0
2023-03-17T04:18:01.983Z,0
2023-03-17T04:19:02.636Z,0
2023-03-17T04:20:03.183Z,0
2023-03-17T04:21:03.775Z,0
2023-03-17T04:22:04.392Z,0
2023-03-17T04:23:04.985Z,0
2023-03-17T04:24:05.576Z,0
2023-03-17T04:25:06.168Z,0
2023-03-17T04:26:06.766Z,0
2023-03-17T04:27:07.356Z,0
2023-03-17T04:28:07.977Z,0
2023-03-17T04:29:08.540Z,0
2023-03-17T04:30:09.134Z,0
2023-03-17T04:31:09.761Z,0
2023-03-17T04:32:10.327Z,0
2023-03-17T04:33:10.977Z,0
2023-03-17T04:34:11.531Z,0
2023-03-17T04:35:12.123Z,0
2023-03-17T04:36:12.721Z,0
2023-03-17T04:37:13.310Z,0
2023-03-17T04:38:13.902Z,0
2023-03-17T04:39:14.521Z,0
2023-03-17T04:40:15.113Z,0
2023-03-17T04:41:15.702Z,0
2023-03-17T04:42:16.291Z,0
2023-03-17T04:43:16.885Z,0
2023-03-17T04:44:17.491Z,0
2023-03-17T04:45:18.071Z,0
2023-03-17T04:46:18.664Z,0
2023-03-17T04:47:19.263Z,0
2023-03-17T04:48:19.850Z,0
2023-03-17T04:49:20.461Z,0
2023-03-17T04:50:21.060Z,0
2023-03-17T04:51:21.643Z,0
2023-03-17T04:52:22.239Z,0
2023-03-17T04:53:22.829Z,0
2023-03-17T04:54:23.425Z,0
2023-03-17T04:55:24.037Z,0
2023-03-17T04:56:24.627Z,0
2023-03-17T04:57:25.216Z,0
2023-03-17T04:58:30.705Z,0
2023-03-17T04:59:26.421Z,0
2023-03-17T05:00:27.012Z,0
2023-03-17T05:01:27.634Z,0
2023-03-17T05:02:28.258Z,0
2023-03-17T05:03:28.991Z,0
2023-03-17T05:04:32.064Z,0
2023-03-17T05:05:31.124Z,0
2023-03-17T05:06:31.712Z,0
2023-03-17T05:07:34.134Z,0
2023-03-17T05:08:33.890Z,0
2023-03-17T05:09:34.484Z,0
2023-03-17T05:10:35.079Z,0
2023-03-17T05:11:35.673Z,0
2023-03-17T05:12:36.270Z,0
2023-03-17T05:13:36.877Z,0
2023-03-17T05:14:37.470Z,0
2023-03-17T05:15:38.051Z,0
2023-03-17T05:16:38.673Z,0
2023-03-17T05:17:39.247Z,0
2023-03-17T05:18:39.840Z,0
2023-03-17T05:19:40.431Z,0
2023-03-17T05:20:41.072Z,0
2023-03-17T05:21:41.666Z,0
2023-03-17T05:22:42.261Z,0
2023-03-17T05:23:42.856Z,0
2023-03-17T05:24:43.455Z,5
2023-03-17T05:25:44.074Z,5
2023-03-17T05:26:44.658Z,5
2023-03-17T05:27:45.255Z,5
2023-03-17T05:28:45.858Z,5
2023-03-17T05:29:46.445Z,11
2023-03-17T05:30:47.051Z,11
2023-03-17T05:31:47.639Z,11
2023-03-17T05:32:48.254Z,11
2023-03-17T05:33:48.826Z,16
2023-03-17T05:34:49.423Z,16
2023-03-17T05:35:50.048Z,16
2023-03-17T05:36:50.618Z,16
2023-03-17T05:37:51.237Z,22
2023-03-17T05:38:51.827Z,22
2023-03-17T05:39:52.422Z,22
2023-03-17T05:40:53.036Z,28
2023-03-17T05:41:53.617Z,28
2023-03-17T05:42:54.231Z,33
2023-03-17T05:43:54.829Z,33
2023-03-17T05:44:55.443Z,39
2023-03-17T05:45:56.107Z,39
2023-03-17T05:46:56.687Z,45
2023-03-17T05:47:57.267Z,45
2023-03-17T05:48:57.864Z,50
2023-03-17T05:49:58.457Z,56
2023-03-17T05:50:59.058Z,56
2023-03-17T05:51:59.652Z,61
2023-03-17T05:53:00.247Z,61
2023-03-17T05:54:00.869Z,67
2023-03-17T05:55:01.477Z,73
2023-03-17T05:56:02.078Z,78
2023-03-17T05:57:02.672Z,78
2023-03-17T05:58:03.268Z,84
2023-03-17T05:59:03.868Z,90
2023-03-17T06:00:04.462Z,95
2023-03-17T06:01:05.062Z,101
2023-03-17T06:02:05.697Z,101
2023-03-17T06:03:06.289Z,106
2023-03-17T06:04:06.864Z,112
2023-03-17T06:05:07.486Z,118
2023-03-17T06:06:08.079Z,123
2023-03-17T06:07:08.680Z,129
2023-03-17T06:08:09.286Z,135
2023-03-17T06:09:09.873Z,140
2023-03-17T06:10:10.471Z,151
2023-03-17T06:11:11.066Z,157
2023-03-17T06:12:11.664Z,163
2023-03-17T06:13:12.285Z,163
2023-03-17T06:14:12.857Z,168
2023-03-17T06:15:13.454Z,174
2023-03-17T06:16:14.098Z,180
2023-03-17T06:17:14.666Z,185
2023-03-17T06:18:15.271Z,191
2023-03-17T06:19:15.877Z,196
2023-03-17T06:20:16.477Z,196
2023-03-17T06:21:17.092Z,202
2023-03-17T06:22:17.691Z,202
2023-03-17T06:23:18.291Z,208
2023-03-17T06:24:18.886Z,208
2023-03-17T06:25:19.480Z,208
2023-03-17T06:26:20.084Z,208
2023-03-17T06:27:20.671Z,208
2023-03-17T06:28:21.269Z,208
2023-03-17T06:29:21.870Z,208
2023-03-17T06:30:22.468Z,208
2023-03-17T06:31:23.104Z,208
2023-03-17T06:32:23.662Z,213
2023-03-17T06:33:24.310Z,213
2023-03-17T06:34:24.898Z,219
2023-03-17T06:35:25.520Z,219
2023-03-17T06:36:26.096Z,225
2023-03-17T06:37:26.692Z,225
2023-03-17T06:38:27.290Z,230
2023-03-17T06:39:27.889Z,236
2023-03-17T06:40:28.485Z,236
2023-03-17T06:41:29.083Z,241
2023-03-17T06:42:29.680Z,247
2023-03-17T06:43:30.276Z,253
2023-03-17T06:44:31.023Z,264
2023-03-17T06:45:31.856Z,286
2023-03-17T06:46:32.684Z,292
2023-03-17T06:47:33.273Z,303
2023-03-17T06:48:33.871Z,320
2023-03-17T06:49:34.627Z,331
2023-03-17T06:50:35.232Z,326
2023-03-17T06:51:35.849Z,315
2023-03-17T06:52:36.414Z,315
2023-03-17T06:53:37.020Z,337
2023-03-17T06:54:37.635Z,343
2023-03-17T06:55:38.225Z,337
2023-03-17T06:56:38.832Z,348
2023-03-17T06:57:39.466Z,331
2023-03-17T06:58:40.037Z,343
2023-03-17T06:59:40.630Z,348
2023-03-17T07:00:41.233Z,354
2023-03-17T07:01:41.897Z,393
2023-03-17T07:02:42.495Z,376
2023-03-17T07:03:43.089Z,360
2023-03-17T07:04:43.698Z,320
2023-03-17T07:05:44.308Z,382
2023-03-17T07:06:44.927Z,360
2023-03-17T07:07:45.524Z,348
2023-03-17T07:08:46.123Z,376
2023-03-17T07:09:46.720Z,388
2023-03-17T07:10:47.317Z,393
2023-03-17T07:11:47.916Z,421
2023-03-17T07:12:48.522Z,472
2023-03-17T07:13:49.129Z,461
2023-03-17T07:14:49.749Z,455
2023-03-17T07:15:50.409Z,461
2023-03-17T07:16:51.013Z,472
2023-03-17T07:17:51.584Z,500
2023-03-17T07:18:52.192Z,500
2023-03-17T07:19:52.793Z,506
2023-03-17T07:20:53.387Z,483
2023-03-17T07:21:53.988Z,489
2023-03-17T07:22:54.592Z,511
2023-03-17T07:23:55.203Z,511
2023-03-17T07:24:55.802Z,545
2023-03-17T07:25:56.398Z,573
2023-03-17T07:26:57.000Z,568
2023-03-17T07:27:57.594Z,534
2023-03-17T07:28:58.205Z,556
2023-03-17T07:29:58.821Z,573
2023-03-17T07:30:59.423Z,573
2023-03-17T07:32:00.011Z,652
2023-03-17T07:33:00.690Z,624
2023-03-17T07:34:01.249Z,601
2023-03-17T07:35:01.845Z,691
2023-03-17T07:36:02.528Z,652
2023-03-17T07:37:03.089Z,703
2023-03-17T07:38:03.713Z,703
2023-03-17T07:39:04.315Z,708
2023-03-17T07:40:04.911Z,675
2023-03-17T07:41:05.551Z,742
2023-03-17T07:42:06.122Z,697
2023-03-17T07:43:06.706Z,720
2023-03-17T07:44:07.325Z,720
2023-03-17T07:45:07.936Z,770
2023-03-17T07:46:08.654Z,860
2023-03-17T07:47:09.251Z,810
2023-03-17T07:48:09.839Z,658
2023-03-17T07:49:10.478Z,770
2023-03-17T07:50:11.103Z,753
2023-03-17T07:51:11.686Z,781
2023-03-17T07:52:12.265Z,855
2023-03-17T07:53:13.029Z,877
2023-03-17T07:54:15.063Z,843
2023-03-17T07:55:14.240Z,894
2023-03-17T07:56:14.838Z,798
2023-03-17T07:57:15.495Z,776
2023-03-17T07:58:16.167Z,759
2023-03-17T07:59:16.712Z,815
2023-03-17T08:00:17.343Z,680
2023-03-17T08:01:17.921Z,781
2023-03-17T08:02:18.609Z,849
2023-03-17T08:03:19.415Z,1091
2023-03-17T08:04:20.077Z,1085
2023-03-17T08:05:20.677Z,1125
2023-03-17T08:06:21.279Z,1231
2023-03-17T08:07:21.872Z,1248
2023-03-17T08:08:22.477Z,1237
2023-03-17T08:09:23.130Z,1282
2023-03-17T08:10:23.728Z,1293
2023-03-17T08:11:24.368Z,1265
2023-03-17T08:12:24.936Z,1293
2023-03-17T08:13:25.555Z,1327
2023-03-17T08:14:26.158Z,1344
2023-03-17T08:15:26.758Z,1282
2023-03-17T08:16:27.397Z,1243
2023-03-17T08:17:28.009Z,1344
2023-03-17T08:18:28.608Z,1046
2023-03-17T08:19:29.196Z,1299
2023-03-17T08:20:30.169Z,1209
2023-03-17T08:21:31.020Z,1310
2023-03-17T08:22:31.567Z,1254
2023-03-17T08:23:32.187Z,1350
2023-03-17T08:24:32.987Z,1113
2023-03-17T08:25:33.599Z,1220
2023-03-17T08:26:34.223Z,1434
2023-03-17T08:27:34.893Z,1395
2023-03-17T08:28:35.428Z,1479
2023-03-17T08:29:36.057Z,1428
2023-03-17T08:30:36.914Z,1226
2023-03-17T08:31:37.766Z,1417
2023-03-17T08:32:38.429Z,1361
2023-03-17T08:33:38.992Z,1552
2023-03-17T08:34:39.589Z,1535
2023-03-17T08:35:40.213Z,1479
2023-03-17T08:36:40.791Z,1428
2023-03-17T08:37:41.389Z,1530
2023-03-17T08:38:41.988Z,1428
2023-03-17T08:39:42.588Z,1271
2023-03-17T08:40:43.192Z,1198
2023-03-17T08:41:43.792Z,1395
2023-03-17T08:42:44.421Z,1355
2023-03-17T08:43:45.009Z,1361
2023-03-17T08:44:45.635Z,1496
2023-03-17T08:45:46.301Z,1293
2023-03-17T08:46:46.848Z,1659
2023-03-17T08:47:47.463Z,1704
2023-03-17T08:48:48.138Z,1760
2023-03-17T08:49:48.743Z,1631
2023-03-17T08:50:49.338Z,1558
2023-03-17T08:51:49.950Z,1428
2023-03-17T08:52:50.556Z,1237
2023-03-17T08:53:51.157Z,1265
2023-03-17T08:54:51.760Z,1333
2023-03-17T08:55:52.362Z,1231
2023-03-17T08:56:52.973Z,1316
2023-03-17T08:57:53.563Z,1355
2023-03-17T08:58:54.165Z,1485
2023-03-17T08:59:54.772Z,1445
2023-03-17T09:00:55.374Z,1411
2023-03-17T09:01:56.049Z,1530
2023-03-17T09:02:56.622Z,1614
2023-03-17T09:03:57.220Z,1530
2023-03-17T09:04:57.829Z,1721
2023-03-17T09:05:58.432Z,1693
2023-03-17T09:07:03.615Z,1653
2023-03-17T09:08:00.545Z,1243
2023-03-17T09:09:01.149Z,1687
2023-03-17T09:10:01.753Z,1518
2023-03-17T09:11:02.355Z,1670
2023-03-17T09:12:02.954Z,1507
2023-03-17T09:13:03.554Z,1828
2023-03-17T09:14:04.170Z,1912
2023-03-17T09:15:04.769Z,1704
2023-03-17T09:16:05.471Z,1518
2023-03-17T09:17:06.196Z,1636
2023-03-17T09:18:06.741Z,1693
2023-03-17T09:19:07.335Z,1749
2023-03-17T09:20:07.936Z,1653
2023-03-17T09:21:08.541Z,1822
2023-03-17T09:22:09.135Z,2013
2023-03-17T09:23:09.734Z,2255
2023-03-17T09:24:10.343Z,1726
2023-03-17T09:25:10.935Z,1586
2023-03-17T09:26:11.558Z,1861
2023-03-17T09:27:12.157Z,1867
2023-03-17T09:28:12.755Z,1929
2023-03-17T09:29:13.358Z,1800
2023-03-17T09:30:13.949Z,1940
2023-03-17T09:31:14.565Z,1800
2023-03-17T09:32:15.162Z,1828
2023-03-17T09:33:15.804Z,1760
2023-03-17T09:34:16.373Z,1839
2023-03-17T09:35:16.971Z,1749
2023-03-17T09:36:17.574Z,1805
2023-03-17T09:37:18.202Z,1625
2023-03-17T09:38:18.797Z,1310
2023-03-17T09:39:19.394Z,1479
2023-03-17T09:40:19.994Z,1563
2023-03-17T09:41:20.602Z,1620
2023-03-17T09:42:21.195Z,1805
2023-03-17T09:43:21.800Z,2075
2023-03-17T09:44:22.398Z,2109
2023-03-17T09:45:23.008Z,1996
2023-03-17T09:46:23.676Z,1760
2023-03-17T09:47:24.249Z,1951
2023-03-17T09:48:24.853Z,1586
2023-03-17T09:49:25.471Z,1434
2023-03-17T09:50:26.079Z,1766
2023-03-17T09:51:26.668Z,1963
2023-03-17T09:52:27.286Z,1698
2023-03-17T09:53:27.894Z,1603
2023-03-17T09:54:28.506Z,1856
2023-03-17T09:55:29.613Z,1957
2023-03-17T09:56:30.296Z,2030
2023-03-17T09:57:30.889Z,1963
2023-03-17T09:58:31.510Z,1440
2023-03-17T09:59:32.140Z,1963
2023-03-17T10:00:32.725Z,1980
2023-03-17T10:01:33.356Z,2154
2023-03-17T10:02:33.911Z,2278
2023-03-17T10:03:34.515Z,2379
2023-03-17T10:04:35.132Z,2041
2023-03-17T10:05:36.234Z,2525
2023-03-17T10:06:36.949Z,2289
2023-03-17T10:07:37.551Z,2610
2023-03-17T10:08:38.153Z,2621
2023-03-17T10:09:38.757Z,2362
2023-03-17T10:10:39.352Z,2806
2023-03-17T10:11:39.947Z,2615
2023-03-17T10:12:40.578Z,2446
2023-03-17T10:13:41.169Z,2266
2023-03-17T10:14:41.795Z,2756
2023-03-17T10:15:42.386Z,2272
2023-03-17T10:16:42.985Z,2356
2023-03-17T10:17:43.596Z,2340
2023-03-17T10:18:44.188Z,2745
2023-03-17T10:19:44.852Z,2835
2023-03-17T10:20:45.454Z,2638
2023-03-17T10:21:46.055Z,2345
2023-03-17T10:22:46.667Z,2896
2023-03-17T10:23:47.255Z,2711
2023-03-17T10:24:47.860Z,1963
2023-03-17T10:25:48.460Z,2103
2023-03-17T10:26:49.057Z,2441
2023-03-17T10:27:49.695Z,2508
2023-03-17T10:28:50.279Z,2497
2023-03-17T10:29:50.895Z,2570
2023-03-17T10:30:51.488Z,2542
2023-03-17T10:31:52.153Z,2098
2023-03-17T10:32:52.783Z,2514
2023-03-17T10:33:53.344Z,2716
2023-03-17T10:34:53.936Z,2784
2023-03-17T10:35:54.574Z,2716
2023-03-17T10:36:55.141Z,2756
2023-03-17T10:38:11.873Z,2508
2023-03-17T10:38:57.338Z,2790
2023-03-17T10:39:57.937Z,2604
2023-03-17T10:40:58.551Z,2660
2023-03-17T10:41:59.142Z,2694
2023-03-17T10:42:59.742Z,2728
2023-03-17T10:44:00.342Z,2677
2023-03-17T10:45:00.944Z,2711
2023-03-17T10:46:01.594Z,2441
2023-03-17T10:47:02.272Z,2266
2023-03-17T10:48:02.848Z,2396
2023-03-17T10:49:03.449Z,2514
2023-03-17T10:50:04.057Z,2660
2023-03-17T10:51:04.665Z,2823
2023-03-17T10:52:05.261Z,2790
2023-03-17T10:53:05.853Z,2936
2023-03-17T10:54:06.449Z,3065
2023-03-17T10:55:07.048Z,3076
2023-03-17T10:56:07.661Z,2722
2023-03-17T10:57:08.251Z,2632
2023-03-17T10:58:08.853Z,2559
2023-03-17T10:59:09.490Z,2722
2023-03-17T11:00:10.092Z,3015
2023-03-17T11:01:10.705Z,3065
2023-03-17T11:02:11.289Z,3183
2023-03-17T11:03:11.891Z,3189
2023-03-17T11:04:12.562Z,3166
2023-03-17T11:05:13.106Z,3116
2023-03-17T11:06:13.745Z,3318
2023-03-17T11:07:14.309Z,3020
2023-03-17T11:08:14.910Z,3105
2023-03-17T11:09:15.512Z,2964
2023-03-17T11:10:16.132Z,3161
2023-03-17T11:11:16.732Z,2638
2023-03-17T11:12:17.355Z,3144
2023-03-17T11:13:17.975Z,2553
2023-03-17T11:14:18.591Z,2334
2023-03-17T11:15:19.191Z,2323
2023-03-17T11:16:19.852Z,2508
2023-03-17T11:17:20.413Z,2317
2023-03-17T11:18:21.179Z,2199
2023-03-17T11:19:21.777Z,2677
2023-03-17T11:20:22.375Z,2441
2023-03-17T11:21:22.975Z,2334
2023-03-17T11:22:23.576Z,2306
2023-03-17T11:23:24.212Z,2441
2023-03-17T11:24:24.810Z,2525
2023-03-17T11:25:25.417Z,2716
2023-03-17T11:26:26.017Z,2857
2023-03-17T11:27:26.611Z,2812
2023-03-17T11:28:27.213Z,2536
2023-03-17T11:29:27.809Z,2565
2023-03-17T11:30:28.624Z,2632
2023-03-17T11:31:29.110Z,2891
2023-03-17T11:32:29.790Z,2992
2023-03-17T11:33:30.392Z,2846
2023-03-17T11:34:30.993Z,3285
2023-03-17T11:35:31.617Z,3234
2023-03-17T11:36:32.194Z,3026
2023-03-17T11:37:32.795Z,3048
2023-03-17T11:38:33.396Z,2615
2023-03-17T11:39:34.014Z,2413
2023-03-17T11:40:34.622Z,2053
2023-03-17T11:41:35.240Z,2154
2023-03-17T11:42:35.842Z,2053
2023-03-17T11:43:36.441Z,2784
2023-03-17T11:44:37.070Z,2508
2023-03-17T11:45:37.709Z,2694
2023-03-17T11:46:38.276Z,2790
2023-03-17T11:47:38.874Z,2542
2023-03-17T11:48:39.477Z,2244
2023-03-17T11:49:40.074Z,2182
2023-03-17T11:50:40.690Z,2385
2023-03-17T11:51:41.284Z,2520
2023-03-17T11:52:41.878Z,2508
2023-03-17T11:53:42.482Z,2446
2023-03-17T11:54:43.096Z,2199
2023-03-17T11:55:43.705Z,2373
2023-03-17T11:56:44.314Z,1963
2023-03-17T11:57:44.915Z,2053
2023-03-17T11:58:45.619Z,1912
2023-03-17T11:59:46.226Z,1743
2023-03-17T12:00:46.898Z,1597
2023-03-17T12:01:47.495Z,1620
2023-03-17T12:02:48.096Z,1648
2023-03-17T12:03:48.782Z,1620
2023-03-17T12:04:49.430Z,1783
2023-03-17T12:05:50.010Z,1721
2023-03-17T12:06:50.648Z,1625
2023-03-17T12:07:51.278Z,1687
2023-03-17T12:08:51.871Z,1850
2023-03-17T12:09:52.471Z,1946
2023-03-17T12:10:53.071Z,2036
2023-03-17T12:11:53.675Z,2160
2023-03-17T12:12:54.289Z,2728
2023-03-17T12:13:54.927Z,2469
2023-03-17T12:14:55.522Z,2643
2023-03-17T12:15:56.159Z,2930
2023-03-17T12:16:56.714Z,2671
2023-03-17T12:17:57.340Z,2193
2023-03-17T12:18:57.958Z,2790
2023-03-17T12:19:58.541Z,2030
2023-03-17T12:20:59.165Z,2435
2023-03-17T12:21:59.785Z,1890
2023-03-17T12:23:00.387Z,1710
2023-03-17T12:24:00.980Z,2030
2023-03-17T12:25:01.581Z,2154
2023-03-17T12:26:02.182Z,2092
2023-03-17T12:27:02.790Z,1890
2023-03-17T12:28:03.386Z,1923
2023-03-17T12:29:03.984Z,1794
2023-03-17T12:30:04.589Z,1873
2023-03-17T12:31:05.218Z,1873
2023-03-17T12:32:05.788Z,1743
2023-03-17T12:33:06.445Z,1681
2023-03-17T12:34:07.022Z,1631
2023-03-17T12:35:07.640Z,1546
2023-03-17T12:36:08.279Z,1507
2023-03-17T12:37:08.844Z,1524
2023-03-17T12:38:09.446Z,1513
2023-03-17T12:39:10.041Z,1575
2023-03-17T12:40:10.644Z,1586
2023-03-17T12:41:11.245Z,1535
2023-03-17T12:42:11.839Z,1558
2023-03-17T12:43:12.440Z,1535
2023-03-17T12:44:13.043Z,1513
2023-03-17T12:45:13.645Z,1485
2023-03-17T12:46:14.299Z,1530
2023-03-17T12:47:14.959Z,1687
2023-03-17T12:48:15.501Z,1833
2023-03-17T12:49:16.099Z,2193
2023-03-17T12:50:16.701Z,2311
2023-03-17T12:51:17.324Z,3195
2023-03-17T12:52:17.930Z,3172
2023-03-17T12:53:18.554Z,3138
2023-03-17T12:54:19.139Z,3397
2023-03-17T12:55:19.740Z,2626
2023-03-17T12:56:20.337Z,2283
2023-03-17T12:57:20.941Z,2666
2023-03-17T12:58:21.558Z,2115
2023-03-17T12:59:22.161Z,2356
2023-03-17T13:00:22.761Z,2396
2023-03-17T13:01:23.373Z,2278
2023-03-17T13:02:23.979Z,1788
2023-03-17T13:03:24.706Z,2413
2023-03-17T13:04:27.035Z,2385
2023-03-17T13:05:26.791Z,2407
2023-03-17T13:06:27.392Z,2593
2023-03-17T13:07:27.995Z,2463
2023-03-17T13:08:28.601Z,2328
2023-03-17T13:09:31.513Z,2441
2023-03-17T13:10:30.785Z,1760
2023-03-17T13:11:31.404Z,1563
2023-03-17T13:12:32.003Z,1563
2023-03-17T13:13:32.610Z,1653
2023-03-17T13:14:33.223Z,1659
2023-03-17T13:15:33.827Z,1676
2023-03-17T13:16:34.453Z,1850
2023-03-17T13:17:35.091Z,1839
2023-03-17T13:18:35.656Z,1811
2023-03-17T13:19:36.269Z,1856
2023-03-17T13:20:36.876Z,1698
2023-03-17T13:21:37.466Z,1873
2023-03-17T13:22:38.066Z,1811
2023-03-17T13:23:38.667Z,1721
2023-03-17T13:24:39.266Z,1659
2023-03-17T13:25:39.866Z,1569
2023-03-17T13:26:40.489Z,1496
2023-03-17T13:27:41.089Z,1518
2023-03-17T13:28:41.694Z,1428
2023-03-17T13:29:42.292Z,1501
2023-03-17T13:30:42.899Z,1541
2023-03-17T13:31:43.599Z,1552
2023-03-17T13:32:44.215Z,1575
2023-03-17T13:33:44.773Z,1563
2023-03-17T13:34:45.396Z,1558
2023-03-17T13:35:46.094Z,1546
2023-03-17T13:36:46.678Z,1428
2023-03-17T13:37:47.275Z,1395
2023-03-17T13:38:52.524Z,1395
2023-03-17T13:39:48.507Z,1338
2023-03-17T13:40:49.122Z,1338
2023-03-17T13:41:49.716Z,1406
2023-03-17T13:42:50.321Z,1355
2023-03-17T13:43:50.931Z,1338
2023-03-17T13:44:51.520Z,1344
2023-03-17T13:45:52.122Z,1333
2023-03-17T13:46:52.762Z,1361
2023-03-17T13:47:53.359Z,1378
2023-03-17T13:48:53.955Z,1406
2023-03-17T13:49:54.559Z,1524
2023-03-17T13:50:55.156Z,1575
2023-03-17T13:51:59.770Z,1456
2023-03-17T13:52:57.355Z,1530
2023-03-17T13:53:57.954Z,1552
2023-03-17T13:54:58.553Z,1535
2023-03-17T13:55:59.204Z,1456
2023-03-17T13:56:59.795Z,1434
2023-03-17T13:58:00.389Z,1417
2023-03-17T13:59:00.987Z,1479
2023-03-17T14:00:01.606Z,1462
2023-03-17T14:01:02.279Z,1496
2023-03-17T14:02:02.835Z,1456
2023-03-17T14:03:03.444Z,1496
2023-03-17T14:04:04.111Z,1479
2023-03-17T14:05:04.673Z,1378
2023-03-17T14:06:05.283Z,1423